Time;durP1;ratioP1;P1;durP2;ratioP2;P2;SDS_P1;SDS_P2;PMS_P1;PMS_P2;Temp;Humidity;BMP_temperature;BMP_pressure;BME280_temperature;BME280_humidity;BME280_pressure;Samples;Min_cycle;Max_cycle;Signal;HPM_P1;HPM_P2
2023/03/22 00:01:36;;;;;;;;;;;15.80;91.00;;;;;;5076681;28;20155;-88
2023/03/22 00:04:02;;;;;;;;;;;15.80;91.00;;;;;;5076839;28;20033;-89
2023/03/22 00:06:27;;;;;;;;;;;15.80;91.00;;;;;;5077530;28;20010;-88
2023/03/22 00:08:53;;;;;;;;;;;15.80;91.00;;;;;;5077808;28;19908;-89
2023/03/22 00:11:23;;;;;;;;;;;15.80;91.00;;;;;;5076086;28;20451;-89
2023/03/22 00:13:51;;;;;;;;;;;15.80;91.00;;;;;;5078255;28;19912;-88
2023/03/22 00:16:20;;;;;;;;;;;15.80;90.90;;;;;;5077445;28;19908;-89
2023/03/22 00:18:46;;;;;;;;;;;15.80;91.20;;;;;;5077701;28;19919;-89
2023/03/22 00:21:12;;;;;;;;;;;15.80;90.90;;;;;;5095343;28;19909;-89
2023/03/22 00:23:38;;;;;;;;;;;15.80;90.90;;;;;;5076145;28;20373;-89
2023/03/22 00:26:07;;;;;;;;;;;15.90;90.90;;;;;;5077035;28;19947;-89
2023/03/22 00:28:33;;;;;;;;;;;15.80;90.90;;;;;;5077438;28;19912;-88
2023/03/22 00:30:59;;;;;;;;;;;15.80;90.90;;;;;;5077206;28;19919;-89
2023/03/22 00:33:25;;;;;;;;;;;15.80;90.90;;;;;;5078264;28;20009;-89
2023/03/22 00:35:54;;;;;;;;;;;15.80;90.90;;;;;;5095124;28;20003;-89
2023/03/22 00:38:20;;;;;;;;;;;15.80;90.90;;;;;;5078237;28;19916;-89
2023/03/22 00:40:46;;;;;;;;;;;15.80;90.90;;;;;;5077916;28;19977;-88
2023/03/22 00:43:12;;;;;;;;;;;15.80;90.90;;;;;;5077527;28;19908;-88
2023/03/22 00:45:39;;;;;;;;;;;15.80;90.90;;;;;;5077557;28;19908;-88
2023/03/22 00:48:06;;;;;;;;;;;15.80;90.80;;;;;;5078639;28;19926;-89
2023/03/22 00:50:31;;;;;;;;;;;15.80;90.80;;;;;;5079375;28;19990;-89
2023/03/22 00:52:57;;;;;;;;;;;15.80;90.80;;;;;;5082318;28;20246;-88
2023/03/22 00:55:26;;;;;;;;;;;15.80;90.80;;;;;;5082451;28;20363;-89
2023/03/22 00:57:51;;;;;;;;;;;15.80;90.80;;;;;;5082270;28;19908;-89
2023/03/22 01:00:17;;;;;;;;;;;15.80;90.80;;;;;;5080836;28;19908;-89
2023/03/22 01:02:45;;;;;;;;;;;15.80;90.80;;;;;;5081223;28;20277;-88
2023/03/22 01:05:16;;;;;;;;;;;15.80;90.80;;;;;;5080982;28;20068;-89
2023/03/22 01:07:45;;;;;;;;;;;15.80;90.80;;;;;;5081608;28;20284;-89
2023/03/22 01:10:13;;;;;;;;;;;15.80;90.80;;;;;;5081467;28;19908;-88
2023/03/22 01:12:39;;;;;;;;;;;15.80;90.80;;;;;;5081298;28;20205;-89
2023/03/22 01:15:06;;;;;;;;;;;15.80;90.80;;;;;;5081655;28;19908;-89
2023/03/22 01:17:35;;;;;;;;;;;15.80;90.80;;;;;;5080251;28;20110;-89
2023/03/22 01:20:00;;;;;;;;;;;15.80;90.80;;;;;;5098161;28;19904;-89
2023/03/22 01:22:26;;;;;;;;;;;15.80;90.80;;;;;;5080699;28;19915;-88
2023/03/22 01:24:52;;;;;;;;;;;15.80;90.80;;;;;;5079621;28;19908;-88
2023/03/22 01:27:20;;;;;;;;;;;15.80;90.80;;;;;;5079669;28;19912;-88
2023/03/22 01:34:51;;;;;;;;;;;15.80;90.80;;;;;;5093217;28;19935;-10
2023/03/22 01:37:16;;;;;;;;;;;15.80;90.80;;;;;;5097080;28;19912;-10
2023/03/22 01:39:42;;;;;;;;;;;15.80;90.80;;;;;;5110556;28;19933;-10
2023/03/22 01:42:12;;;;;;;;;;;15.70;90.70;;;;;;5076889;28;19908;-10
2023/03/22 01:44:40;;;;;;;;;;;15.80;90.80;;;;;;5078331;28;19908;-10
2023/03/22 01:47:07;;;;;;;;;;;15.70;90.70;;;;;;5096801;28;19973;-10
2023/03/22 01:49:33;;;;;;;;;;;15.70;90.70;;;;;;5096890;28;19907;-10
2023/03/22 01:52:07;;;;;;;;;;;15.70;90.70;;;;;;5097514;28;19919;-10
2023/03/22 01:54:39;;;;;;;;;;;15.70;90.70;;;;;;5097088;28;19908;-10
2023/03/22 01:57:05;;;;;;;;;;;15.80;90.70;;;;;;5080436;28;19976;-10
2023/03/22 01:59:31;;;;;;;;;;;15.70;91.00;;;;;;5114965;28;19915;-10
2023/03/22 02:02:01;;;;;;;;;;;15.70;90.70;;;;;;5078653;28;19912;-10
2023/03/22 02:04:32;;;;;;;;;;;15.70;91.00;;;;;;5098141;28;19919;-10
2023/03/22 02:07:08;;;;;;;;;;;15.70;90.70;;;;;;5097342;28;20000;-10
2023/03/22 02:09:41;;;;;;;;;;;15.70;90.70;;;;;;5097886;28;19920;-10
2023/03/22 02:12:15;;;;;;;;;;;15.70;90.70;;;;;;5108946;28;19935;-10
2023/03/22 02:14:57;;;;;;;;;;;15.80;90.70;;;;;;5090875;28;20217;-10
2023/03/22 02:17:22;;;;;;;;;;;15.70;90.70;;;;;;5095967;28;19938;-10
2023/03/22 02:20:09;;;;;;;;;;;15.70;90.70;;;;;;5094962;28;20277;-10
2023/03/22 02:22:38;;;;;;;;;;;15.70;90.70;;;;;;5097174;28;19908;-10
2023/03/22 02:25:11;;;;;;;;;;;15.70;90.70;;;;;;5096348;28;20277;-10
2023/03/22 02:27:58;;;;;;;;;;;15.70;90.70;;;;;;5096094;28;19908;-10
2023/03/22 02:30:26;;;;;;;;;;;15.70;90.70;;;;;;5079676;28;19935;-10
2023/03/22 02:32:54;;;;;;;;;;;15.70;91.00;;;;;;5096844;28;19912;-10
2023/03/22 02:35:26;;;;;;;;;;;15.70;90.70;;;;;;5096522;28;19908;-10
2023/03/22 02:38:10;;;;;;;;;;;15.70;90.70;;;;;;5078609;28;20331;-10
2023/03/22 02:40:49;;;;;;;;;;;15.70;90.70;;;;;;5112786;28;19919;-10
2023/03/22 02:43:15;;;;;;;;;;;15.70;90.70;;;;;;5096524;28;20307;-10
2023/03/22 02:45:54;;;;;;;;;;;15.70;90.70;;;;;;5095334;28;19909;-10
2023/03/22 02:48:25;;;;;;;;;;;15.70;90.70;;;;;;5096621;28;20060;-10
2023/03/22 02:50:53;;;;;;;;;;;15.70;90.70;;;;;;5096938;28;19934;-10
2023/03/22 02:53:24;;;;;;;;;;;15.70;90.70;;;;;;5095903;28;19908;-14
2023/03/22 02:55:54;;;;;;;;;;;15.60;90.70;;;;;;5096136;28;19915;-10
2023/03/22 02:58:32;;;;;;;;;;;15.60;90.70;;;;;;5097264;28;19943;-10
2023/03/22 03:01:04;;;;;;;;;;;15.60;90.70;;;;;;5114288;28;20189;-11
2023/03/22 03:03:31;;;;;;;;;;;15.60;90.70;;;;;;5097323;28;19919;-11
2023/03/22 03:06:02;;;;;;;;;;;15.60;90.70;;;;;;5114908;28;19948;-11
2023/03/22 03:08:31;;;;;;;;;;;15.60;90.70;;;;;;5097348;28;19955;-11
2023/03/22 03:10:57;;;;;;;;;;;15.60;90.70;;;;;;5097091;28;20212;-11
2023/03/22 03:13:23;;;;;;;;;;;15.60;90.70;;;;;;5112256;28;19908;-11
2023/03/22 03:15:58;;;;;;;;;;;15.60;90.70;;;;;;5096640;28;20271;-11
2023/03/22 03:18:23;;;;;;;;;;;15.60;90.70;;;;;;5095613;28;19915;-11
2023/03/22 03:21:08;;;;;;;;;;;15.60;90.70;;;;;;5095465;28;19916;-11
2023/03/22 03:23:57;;;;;;;;;;;15.60;90.70;;;;;;5094649;28;19908;-11
2023/03/22 03:26:34;;;;;;;;;;;15.60;90.70;;;;;;5069411;28;20252;-11
2023/03/22 03:29:18;;;;;;;;;;;15.60;90.70;;;;;;5094994;28;19989;-11
2023/03/22 03:31:51;;;;;;;;;;;15.60;90.70;;;;;;5113333;28;20053;-11
2023/03/22 03:34:19;;;;;;;;;;;15.50;90.70;;;;;;5095005;28;19927;-11
2023/03/22 03:37:07;;;;;;;;;;;15.60;90.70;;;;;;5112242;28;19912;-11
2023/03/22 03:39:36;;;;;;;;;;;15.50;90.70;;;;;;5078233;28;19908;-11
2023/03/22 03:42:04;;;;;;;;;;;15.50;90.70;;;;;;5078688;28;20208;-11
2023/03/22 03:44:31;;;;;;;;;;;15.50;90.70;;;;;;5077325;28;19908;-11
2023/03/22 03:46:57;;;;;;;;;;;15.50;90.70;;;;;;5113281;28;20006;-11
2023/03/22 03:49:23;;;;;;;;;;;15.50;90.70;;;;;;5094150;28;20003;-11
2023/03/22 03:51:53;;;;;;;;;;;15.50;90.70;;;;;;5094971;28;19995;-11
2023/03/22 03:54:19;;;;;;;;;;;15.50;90.70;;;;;;5094947;28;19951;-11
2023/03/22 03:56:46;;;;;;;;;;;15.50;90.70;;;;;;5077071;28;19962;-11
2023/03/22 03:59:14;;;;;;;;;;;15.50;90.70;;;;;;5094218;28;19908;-11
2023/03/22 04:01:48;;;;;;;;;;;15.50;90.70;;;;;;5094208;28;19950;-11
2023/03/22 04:04:41;;;;;;;;;;;15.50;90.70;;;;;;5095478;28;20252;-11
2023/03/22 04:07:06;;;;;;;;;;;15.50;90.70;;;;;;5075874;28;19940;-11
2023/03/22 04:09:34;;;;;;;;;;;15.50;90.70;;;;;;5096155;28;20249;-11
2023/03/22 04:11:59;;;;;;;;;;;15.50;90.70;;;;;;5096145;28;19994;-11
2023/03/22 04:14:25;;;;;;;;;;;15.50;90.70;;;;;;5096058;28;20298;-11
2023/03/22 04:16:51;;;;;;;;;;;15.40;90.70;;;;;;5112323;28;19912;-11
2023/03/22 04:19:17;;;;;;;;;;;15.50;90.70;;;;;;5096106;28;19977;-11
2023/03/22 04:21:42;;;;;;;;;;;15.50;90.80;;;;;;5096163;28;19908;-11
2023/03/22 04:24:08;;;;;;;;;;;15.40;90.70;;;;;;5111202;28;19908;-11
2023/03/22 04:26:34;;;;;;;;;;;15.50;90.80;;;;;;5096075;28;20201;-11
2023/03/22 04:29:01;;;;;;;;;;;15.50;90.80;;;;;;5096702;28;19957;-11
2023/03/22 04:31:28;;;;;;;;;;;15.40;90.70;;;;;;5112817;28;19908;-11
2023/03/22 04:33:54;;;;;;;;;;;15.40;90.80;;;;;;5077144;28;20008;-11
2023/03/22 04:36:23;;;;;;;;;;;15.40;90.80;;;;;;5076303;28;19985;-11
2023/03/22 04:38:50;;;;;;;;;;;15.40;90.80;;;;;;5076009;28;19908;-11
2023/03/22 04:41:16;;;;;;;;;;;15.40;90.80;;;;;;5093174;28;19916;-11
2023/03/22 04:43:45;;;;;;;;;;;15.40;90.80;;;;;;5094037;28;19915;-11
2023/03/22 04:46:11;;;;;;;;;;;15.40;90.80;;;;;;5076323;28;20194;-11
2023/03/22 04:48:38;;;;;;;;;;;15.40;90.80;;;;;;5092899;28;19912;-11
2023/03/22 04:51:05;;;;;;;;;;;15.40;90.80;;;;;;5075855;28;19908;-23
2023/03/22 04:53:31;;;;;;;;;;;15.40;90.90;;;;;;5075982;28;19908;-11
2023/03/22 04:55:56;;;;;;;;;;;15.40;90.90;;;;;;5093320;28;19908;-11
2023/03/22 04:58:23;;;;;;;;;;;15.30;90.80;;;;;;5092170;28;19908;-11
2023/03/22 05:00:49;;;;;;;;;;;15.40;90.90;;;;;;5075376;28;19919;-11
2023/03/22 05:03:18;;;;;;;;;;;15.40;90.90;;;;;;5094769;28;19912;-11
2023/03/22 05:06:09;;;;;;;;;;;15.30;90.90;;;;;;5093805;28;20036;-11
2023/03/22 05:08:35;;;;;;;;;;;15.30;90.90;;;;;;5089812;28;20348;-11
2023/03/22 05:11:05;;;;;;;;;;;15.30;90.90;;;;;;5075934;28;20053;-11
2023/03/22 05:13:31;;;;;;;;;;;15.30;90.90;;;;;;5092452;28;20003;-11
2023/03/22 05:15:57;;;;;;;;;;;15.30;90.90;;;;;;5076368;28;20065;-11
2023/03/22 05:18:25;;;;;;;;;;;15.30;90.90;;;;;;5073792;28;19908;-11
2023/03/22 05:20:52;;;;;;;;;;;15.30;90.90;;;;;;5091008;28;19908;-11
2023/03/22 05:23:19;;;;;;;;;;;15.30;90.90;;;;;;5090438;28;19951;-11
2023/03/22 05:25:48;;;;;;;;;;;15.30;91.00;;;;;;5106011;28;19954;-11
2023/03/22 05:28:15;;;;;;;;;;;15.30;91.00;;;;;;5088310;28;19960;-11
2023/03/22 05:30:41;;;;;;;;;;;15.30;91.00;;;;;;5103324;28;19908;-11
2023/03/22 05:33:07;;;;;;;;;;;15.30;90.90;;;;;;5103777;28;19916;-11
2023/03/22 05:35:33;;;;;;;;;;;15.30;90.90;;;;;;5088989;28;20077;-11
2023/03/22 05:38:02;;;;;;;;;;;15.30;90.90;;;;;;5107487;28;19912;-11
2023/03/22 05:40:27;;;;;;;;;;;15.30;91.00;;;;;;5092011;28;20176;-11
2023/03/22 05:42:54;;;;;;;;;;;15.30;90.90;;;;;;5073495;28;20037;-11
2023/03/22 05:45:23;;;;;;;;;;;15.30;90.90;;;;;;5092277;28;20296;-11
2023/03/22 05:47:48;;;;;;;;;;;15.30;90.90;;;;;;5108328;28;20375;-11
2023/03/22 05:50:16;;;;;;;;;;;15.30;90.90;;;;;;5094611;28;20343;-11
2023/03/22 05:52:43;;;;;;;;;;;15.30;90.80;;;;;;5111305;28;19998;-11
2023/03/22 05:55:11;;;;;;;;;;;15.40;90.90;;;;;;5110143;28;19951;-11
2023/03/22 05:57:37;;;;;;;;;;;15.30;90.80;;;;;;5110233;28;20156;-11
2023/03/22 06:02:36;;;;;;;;;;;15.40;90.80;;;;;;5102937;22;20039;-11
2023/03/22 06:05:02;;;;;;;;;;;15.40;90.70;;;;;;5072245;28;19912;-11
2023/03/22 06:07:27;;;;;;;;;;;15.40;90.70;;;;;;5091212;28;19977;-11
2023/03/22 06:09:53;;;;;;;;;;;15.40;90.70;;;;;;5092609;28;19920;-11
2023/03/22 06:12:23;;;;;;;;;;;15.40;90.70;;;;;;5090466;28;20256;-11
2023/03/22 06:14:49;;;;;;;;;;;15.40;90.60;;;;;;5090967;28;19919;-11
2023/03/22 06:17:14;;;;;;;;;;;15.40;90.60;;;;;;5105080;28;19920;-11
2023/03/22 06:19:40;;;;;;;;;;;15.40;90.60;;;;;;5089060;28;20041;-11
2023/03/22 06:22:06;;;;;;;;;;;15.40;90.70;;;;;;5090233;28;20397;-11
2023/03/22 06:24:31;;;;;;;;;;;15.50;90.80;;;;;;5090032;28;19908;-11
2023/03/22 06:26:57;;;;;;;;;;;15.50;90.90;;;;;;5088610;28;19908;-11
2023/03/22 06:29:23;;;;;;;;;;;15.50;91.00;;;;;;5070172;28;20007;-11
2023/03/22 06:31:48;;;;;;;;;;;15.60;91.00;;;;;;5088792;28;19908;-11
2023/03/22 06:34:14;;;;;;;;;;;15.60;91.10;;;;;;5091634;28;19918;-11
2023/03/22 06:36:41;;;;;;;;;;;15.60;91.10;;;;;;5089354;28;19934;-11
2023/03/22 06:39:07;;;;;;;;;;;15.50;91.20;;;;;;5061643;28;19991;-11
2023/03/22 06:41:33;;;;;;;;;;;15.50;91.40;;;;;;5067578;28;19921;-11
2023/03/22 06:43:58;;;;;;;;;;;15.60;91.60;;;;;;5051370;28;19973;-11
2023/03/22 06:46:24;;;;;;;;;;;15.60;91.50;;;;;;5068730;28;20011;-11
2023/03/22 06:48:50;;;;;;;;;;;15.60;91.50;;;;;;5067059;28;20011;-11
2023/03/22 06:51:19;;;;;;;;;;;15.60;91.40;;;;;;5049310;28;20061;-11
2023/03/22 06:53:45;;;;;;;;;;;15.60;91.40;;;;;;5068049;28;19908;-11
2023/03/22 06:56:10;;;;;;;;;;;15.70;92.90;;;;;;5081899;28;19908;-11
2023/03/22 06:58:36;;;;;;;;;;;15.90;94.70;;;;;;5070144;28;19920;-11
2023/03/22 07:01:01;;;;;;;;;;;16.10;95.40;;;;;;5068082;28;19956;-11
2023/03/22 07:03:27;;;;;;;;;;;16.20;94.90;;;;;;5081286;28;19990;-11
2023/03/22 07:05:59;;;;;;;;;;;16.40;94.80;;;;;;5083973;28;19909;-12
2023/03/22 07:08:24;;;;;;;;;;;16.50;94.70;;;;;;5066529;28;20225;-11
2023/03/22 07:10:50;;;;;;;;;;;16.70;93.80;;;;;;5050900;28;20308;-10
2023/03/22 07:13:15;;;;;;;;;;;16.70;93.20;;;;;;5068725;28;20263;-11
2023/03/22 07:15:41;;;;;;;;;;;16.70;92.60;;;;;;5085893;28;20273;-10
2023/03/22 07:18:07;;;;;;;;;;;16.80;92.20;;;;;;5087199;28;20186;-11
2023/03/22 07:20:35;;;;;;;;;;;16.80;91.90;;;;;;5087601;28;19920;-10
2023/03/22 07:23:01;;;;;;;;;;;16.80;91.70;;;;;;5069175;28;19912;-10
2023/03/22 07:25:26;;;;;;;;;;;16.70;91.50;;;;;;5086346;28;20183;-10
2023/03/22 07:27:52;;;;;;;;;;;16.70;91.40;;;;;;5082839;28;20179;-10
2023/03/22 07:30:18;;;;;;;;;;;16.70;91.30;;;;;;5085224;28;19908;-10
2023/03/22 07:32:43;;;;;;;;;;;16.70;91.60;;;;;;5081679;28;19916;-10
2023/03/22 07:35:09;;;;;;;;;;;16.70;91.20;;;;;;5057235;28;20254;-10
2023/03/22 07:37:35;;;;;;;;;;;16.80;91.00;;;;;;5067789;28;20155;-10
2023/03/22 07:40:01;;;;;;;;;;;17.20;90.00;;;;;;5084526;28;19995;-10
2023/03/22 07:42:26;;;;;;;;;;;17.50;87.80;;;;;;5087484;28;19944;-10
2023/03/22 07:44:52;;;;;;;;;;;17.80;85.70;;;;;;5067825;28;20240;-10
2023/03/22 07:47:20;;;;;;;;;;;18.10;83.40;;;;;;5066891;28;19916;-10
2023/03/22 07:49:48;;;;;;;;;;;18.70;80.40;;;;;;5088129;28;19918;-10
2023/03/22 07:52:14;;;;;;;;;;;19.50;75.80;;;;;;5068891;28;19915;-10
2023/03/22 07:54:39;;;;;;;;;;;20.40;70.10;;;;;;5086850;28;19912;-10
2023/03/22 07:57:08;;;;;;;;;;;20.90;66.40;;;;;;5085856;28;19922;-10
2023/03/22 07:59:37;;;;;;;;;;;21.20;63.80;;;;;;5068492;28;19915;-10
2023/03/22 08:02:03;;;;;;;;;;;21.50;62.00;;;;;;5069670;28;19923;-10
2023/03/22 08:04:29;;;;;;;;;;;21.10;61.20;;;;;;5087580;28;19916;-10
2023/03/22 08:06:57;;;;;;;;;;;20.90;62.50;;;;;;5104730;28;19918;-10
2023/03/22 08:09:24;;;;;;;;;;;21.20;61.80;;;;;;5068810;28;20102;-11
2023/03/22 08:11:50;;;;;;;;;;;21.10;61.00;;;;;;5103588;28;19908;-11
2023/03/22 08:14:15;;;;;;;;;;;20.90;61.30;;;;;;5069664;28;20150;-11
2023/03/22 08:16:44;;;;;;;;;;;20.30;62.10;;;;;;5087171;28;19912;-11
2023/03/22 08:19:10;;;;;;;;;;;19.80;64.20;;;;;;5067124;28;20075;-10
2023/03/22 08:21:38;;;;;;;;;;;19.60;65.80;;;;;;5087169;28;19919;-11
2023/03/22 08:24:05;;;;;;;;;;;19.60;66.40;;;;;;5071385;28;19908;-11
2023/03/22 08:26:30;;;;;;;;;;;19.50;67.00;;;;;;5089161;28;20003;-11
2023/03/22 08:28:56;;;;;;;;;;;19.40;67.20;;;;;;5104866;28;20225;-11
2023/03/22 08:31:22;;;;;;;;;;;19.20;68.10;;;;;;5088668;28;19915;-11
2023/03/22 08:33:48;;;;;;;;;;;19.10;69.10;;;;;;5088547;28;19909;-11
2023/03/22 08:36:15;;;;;;;;;;;18.90;69.60;;;;;;5103693;28;20041;-11
2023/03/22 08:38:41;;;;;;;;;;;18.70;70.70;;;;;;5068798;28;19939;-11
2023/03/22 08:41:07;;;;;;;;;;;18.60;71.70;;;;;;5069154;28;20258;-11
2023/03/22 08:43:35;;;;;;;;;;;18.40;72.50;;;;;;5101591;28;20197;-11
2023/03/22 08:46:04;;;;;;;;;;;18.30;73.30;;;;;;5086226;28;19927;-11
2023/03/22 08:48:30;;;;;;;;;;;18.30;74.10;;;;;;5086237;28;19954;-11
2023/03/22 08:50:56;;;;;;;;;;;18.20;74.30;;;;;;5066883;28;19908;-11
2023/03/22 08:53:22;;;;;;;;;;;18.60;74.20;;;;;;5101894;28;19965;-11
2023/03/22 08:55:47;;;;;;;;;;;18.40;73.50;;;;;;5085042;28;19916;-11
2023/03/22 08:58:15;;;;;;;;;;;18.60;73.30;;;;;;5084333;28;19920;-11
2023/03/22 09:00:41;;;;;;;;;;;18.80;72.80;;;;;;5102192;28;19939;-11
2023/03/22 09:03:06;;;;;;;;;;;18.90;71.70;;;;;;5111251;28;20228;-11
2023/03/22 09:05:32;;;;;;;;;;;19.00;70.70;;;;;;5088438;28;19908;-11
2023/03/22 09:07:58;;;;;;;;;;;19.20;70.50;;;;;;5085681;28;20102;-11
2023/03/22 09:10:27;;;;;;;;;;;19.00;70.10;;;;;;5087576;28;20079;-11
2023/03/22 09:12:55;;;;;;;;;;;18.90;70.40;;;;;;5062288;28;19913;-11
2023/03/22 09:15:21;;;;;;;;;;;18.80;71.00;;;;;;5078962;28;19935;-11
2023/03/22 09:17:48;;;;;;;;;;;19.60;69.90;;;;;;5071479;28;20417;-11
2023/03/22 09:20:13;;;;;;;;;;;20.10;66.10;;;;;;5066342;28;20082;-11
2023/03/22 09:22:39;;;;;;;;;;;20.20;64.70;;;;;;5050708;28;19920;-11
2023/03/22 09:25:05;;;;;;;;;;;20.60;62.60;;;;;;5052888;28;20300;-11
2023/03/22 09:27:30;;;;;;;;;;;20.50;63.10;;;;;;5070974;28;19999;-11
2023/03/22 09:29:59;;;;;;;;;;;20.70;61.40;;;;;;5052762;28;19917;-11
2023/03/22 09:32:28;;;;;;;;;;;20.10;62.40;;;;;;5085761;28;20007;-11
2023/03/22 09:34:54;;;;;;;;;;;19.80;64.20;;;;;;5070181;28;20297;-11
2023/03/22 09:37:19;;;;;;;;;;;19.50;65.30;;;;;;5052011;28;19947;-11
2023/03/22 09:39:45;;;;;;;;;;;19.10;66.90;;;;;;5069553;28;20279;-11
2023/03/22 09:42:26;;;;;;;;;;;19.10;68.60;;;;;;5070586;28;19919;-11
2023/03/22 09:44:53;;;;;;;;;;;18.90;69.10;;;;;;5053248;28;19919;-11
2023/03/22 09:47:24;;;;;;;;;;;18.80;69.90;;;;;;5053409;28;20181;-11
2023/03/22 09:49:53;;;;;;;;;;;19.10;69.20;;;;;;5051258;28;20312;-11
2023/03/22 09:52:19;;;;;;;;;;;19.30;68.00;;;;;;5069781;28;19935;-11
2023/03/22 09:54:45;;;;;;;;;;;20.00;67.60;;;;;;5077141;28;19909;-11
2023/03/22 09:57:37;;;;;;;;;;;21.20;62.50;;;;;;5076441;28;19913;-12
2023/03/22 10:00:41;;;;;;;;;;;21.60;60.30;;;;;;5075247;28;19908;-12
2023/03/22 10:03:36;;;;;;;;;;;21.70;58.50;;;;;;5036116;28;19940;-11
2023/03/22 10:06:13;;;;;;;;;;;20.90;59.40;;;;;;4967535;28;19911;-11
2023/03/22 10:08:57;;;;;;;;;;;20.20;61.20;;;;;;5027051;28;20215;-11
2023/03/22 10:11:23;;;;;;;;;;;19.80;63.10;;;;;;5024455;28;20054;-11
2023/03/22 10:14:07;;;;;;;;;;;19.60;67.90;;;;;;5034314;28;19974;-10
2023/03/22 10:16:33;;;;;;;;;;;19.50;69.20;;;;;;5049883;28;20082;-10
2023/03/22 10:19:03;;;;;;;;;;;19.30;69.60;;;;;;5052944;28;19923;-10
2023/03/22 10:21:28;;;;;;;;;;;19.20;69.40;;;;;;5070064;28;19908;-11
2023/03/22 10:24:11;;;;;;;;;;;19.10;69.60;;;;;;5082087;28;19932;-10
2023/03/22 10:26:44;;;;;;;;;;;19.10;70.30;;;;;;5052663;28;19908;-10
2023/03/22 10:29:20;;;;;;;;;;;19.10;71.50;;;;;;5071039;28;19920;-10
2023/03/22 10:31:46;;;;;;;;;;;19.20;72.50;;;;;;5054328;28;20182;-11
2023/03/22 10:34:22;;;;;;;;;;;19.10;71.80;;;;;;5053172;28;20285;-11
2023/03/22 10:36:50;;;;;;;;;;;19.20;71.50;;;;;;5052380;28;20289;-11
2023/03/22 10:39:27;;;;;;;;;;;19.20;71.30;;;;;;5052989;28;19908;-11
2023/03/22 10:41:54;;;;;;;;;;;19.20;71.20;;;;;;5052311;28;20386;-11
2023/03/22 10:44:22;;;;;;;;;;;19.20;71.30;;;;;;5070288;28;19988;-11
2023/03/22 10:46:48;;;;;;;;;;;19.20;71.20;;;;;;5051055;28;19915;-11
2023/03/22 10:49:24;;;;;;;;;;;19.10;71.40;;;;;;5068875;28;19909;-11
2023/03/22 10:51:53;;;;;;;;;;;19.00;72.50;;;;;;5051155;28;20301;-11
2023/03/22 10:54:20;;;;;;;;;;;18.90;72.50;;;;;;5050852;28;19995;-11
2023/03/22 10:56:45;;;;;;;;;;;19.00;72.60;;;;;;5066642;28;19912;-11
2023/03/22 10:59:30;;;;;;;;;;;19.00;72.40;;;;;;5066854;28;19909;-11
2023/03/22 11:01:55;;;;;;;;;;;19.00;72.50;;;;;;5047550;28;19920;-10
2023/03/22 11:04:21;;;;;;;;;;;18.90;72.50;;;;;;5066327;28;19912;-10
2023/03/22 11:06:52;;;;;;;;;;;18.90;72.50;;;;;;5048142;28;20378;-10
2023/03/22 11:09:19;;;;;;;;;;;18.90;72.60;;;;;;5047241;28;20155;-11
2023/03/22 11:11:48;;;;;;;;;;;18.90;72.70;;;;;;5067935;28;19919;-11
2023/03/22 11:14:15;;;;;;;;;;;18.90;72.60;;;;;;5067420;28;19918;-11
2023/03/22 11:16:43;;;;;;;;;;;18.90;72.70;;;;;;5049060;28;20073;-10
2023/03/22 11:19:13;;;;;;;;;;;18.90;72.80;;;;;;5049196;28;20005;-11
2023/03/22 11:21:40;;;;;;;;;;;18.80;72.80;;;;;;5049110;28;19917;-11
2023/03/22 11:24:06;;;;;;;;;;;18.80;72.90;;;;;;5066885;28;19908;-11
2023/03/22 11:26:36;;;;;;;;;;;18.80;72.90;;;;;;5050134;28;20340;-10
2023/03/22 11:29:31;;;;;;;;;;;18.80;72.90;;;;;;5069541;28;19912;-10
2023/03/22 11:32:00;;;;;;;;;;;18.80;73.10;;;;;;5045450;28;19909;-11
2023/03/22 11:34:27;;;;;;;;;;;18.70;73.20;;;;;;5066883;28;20025;-11
2023/03/22 11:36:56;;;;;;;;;;;18.70;73.40;;;;;;5051726;28;19913;-11
2023/03/22 11:39:27;;;;;;;;;;;18.70;73.60;;;;;;5069619;28;19920;-10
2023/03/22 11:42:00;;;;;;;;;;;18.60;73.80;;;;;;5066757;28;19923;-11
2023/03/22 11:44:26;;;;;;;;;;;18.60;74.10;;;;;;5049619;28;20185;-11
2023/03/22 11:46:53;;;;;;;;;;;18.50;74.30;;;;;;5050025;28;20255;-11
2023/03/22 11:49:19;;;;;;;;;;;18.50;74.60;;;;;;5065858;28;19919;-11
2023/03/22 11:51:47;;;;;;;;;;;18.40;74.80;;;;;;5063950;28;19920;-11
2023/03/22 11:54:18;;;;;;;;;;;18.40;75.00;;;;;;5084279;28;19943;-11
2023/03/22 11:56:45;;;;;;;;;;;18.40;75.20;;;;;;5073775;28;19923;-11
2023/03/22 11:59:15;;;;;;;;;;;18.30;75.40;;;;;;5082923;28;19907;-11
2023/03/22 12:01:47;;;;;;;;;;;18.30;75.70;;;;;;5067689;28;19916;-11
2023/03/22 12:04:15;;;;;;;;;;;18.20;75.90;;;;;;5086124;28;19951;-11
2023/03/22 12:06:41;;;;;;;;;;;18.20;76.20;;;;;;5086063;28;20406;-11
2023/03/22 12:09:24;;;;;;;;;;;18.10;76.50;;;;;;5066222;28;20006;-11
2023/03/22 12:12:04;;;;;;;;;;;18.10;76.80;;;;;;5073655;28;19918;-11
2023/03/22 12:14:44;;;;;;;;;;;18.10;77.10;;;;;;5095930;28;19908;-11
2023/03/22 12:17:12;;;;;;;;;;;18.10;77.20;;;;;;5093968;28;19919;-10
2023/03/22 12:19:56;;;;;;;;;;;18.00;77.50;;;;;;5095556;28;19912;-10
2023/03/22 12:22:28;;;;;;;;;;;18.00;77.70;;;;;;5077952;28;20309;-11
2023/03/22 12:24:54;;;;;;;;;;;18.00;77.80;;;;;;5095287;28;19908;-11
2023/03/22 12:27:21;;;;;;;;;;;18.00;78.00;;;;;;5094756;28;20200;-11
2023/03/22 12:29:56;;;;;;;;;;;17.90;78.20;;;;;;5076954;28;19940;-11
2023/03/22 12:32:27;;;;;;;;;;;17.90;78.50;;;;;;5094139;28;19912;-11
2023/03/22 12:34:57;;;;;;;;;;;17.90;78.80;;;;;;5094681;28;19916;-11
2023/03/22 12:37:27;;;;;;;;;;;17.80;79.00;;;;;;5094205;28;20061;-11
2023/03/22 12:39:55;;;;;;;;;;;17.80;79.20;;;;;;5072967;28;19909;-11
2023/03/22 12:42:54;;;;;;;;;;;17.80;79.40;;;;;;5077371;28;20352;-11
2023/03/22 12:45:22;;;;;;;;;;;17.80;79.50;;;;;;5049946;28;19915;-11
2023/03/22 12:47:54;;;;;;;;;;;17.80;79.60;;;;;;5098977;28;19919;-11
2023/03/22 12:50:42;;;;;;;;;;;17.80;79.60;;;;;;5099382;28;19908;-11
2023/03/22 12:53:13;;;;;;;;;;;17.80;79.60;;;;;;5081653;28;19908;-11
2023/03/22 12:55:39;;;;;;;;;;;17.80;79.60;;;;;;5093374;28;19916;-11
2023/03/22 12:58:06;;;;;;;;;;;17.80;79.60;;;;;;5097389;28;19912;-11
2023/03/22 13:00:35;;;;;;;;;;;17.80;79.70;;;;;;5063388;28;19912;-11
2023/03/22 13:03:05;;;;;;;;;;;17.70;79.80;;;;;;5080081;28;19916;-11
2023/03/22 13:05:32;;;;;;;;;;;17.70;79.90;;;;;;5097881;28;19909;-11
2023/03/22 13:07:58;;;;;;;;;;;17.70;79.90;;;;;;5098861;28;20068;-11
2023/03/22 13:10:29;;;;;;;;;;;17.70;80.10;;;;;;5098660;28;20014;-11
2023/03/22 13:13:16;;;;;;;;;;;17.70;80.20;;;;;;5079669;28;19939;-11
2023/03/22 13:15:57;;;;;;;;;;;17.60;80.30;;;;;;5085740;22;19920;-11
2023/03/22 13:18:34;;;;;;;;;;;17.60;80.50;;;;;;5086263;28;20197;-11
2023/03/22 13:21:20;;;;;;;;;;;17.60;80.60;;;;;;5101541;28;19962;-10
2023/03/22 13:23:51;;;;;;;;;;;17.60;80.80;;;;;;5082941;28;20282;-11
2023/03/22 13:26:17;;;;;;;;;;;17.50;81.00;;;;;;5085588;28;19953;-11
2023/03/22 13:28:52;;;;;;;;;;;17.50;81.10;;;;;;5068768;28;19973;-11
2023/03/22 13:31:54;;;;;;;;;;;17.50;81.40;;;;;;5086734;28;19919;-10
2023/03/22 13:34:36;;;;;;;;;;;17.50;81.50;;;;;;5006066;28;20164;-10
2023/03/22 13:37:04;;;;;;;;;;;17.50;81.70;;;;;;5040287;28;19920;-10
2023/03/22 13:39:33;;;;;;;;;;;17.50;81.70;;;;;;5087127;28;20010;-11
2023/03/22 13:42:17;;;;;;;;;;;17.50;81.90;;;;;;5087492;28;19943;-10
2023/03/22 13:44:45;;;;;;;;;;;17.50;82.00;;;;;;5103690;28;19912;-10
2023/03/22 13:47:30;;;;;;;;;;;17.50;82.00;;;;;;5073172;28;20006;-10
2023/03/22 13:50:06;;;;;;;;;;;17.40;82.10;;;;;;5090124;28;19908;-10
2023/03/22 13:52:55;;;;;;;;;;;17.40;82.10;;;;;;5104253;28;19908;-10
2023/03/22 13:55:56;;;;;;;;;;;17.40;82.10;;;;;;5064015;28;19920;-10
2023/03/22 13:58:35;;;;;;;;;;;17.40;82.20;;;;;;5008580;28;20225;-10
2023/03/22 14:01:24;;;;;;;;;;;17.40;82.30;;;;;;5041730;28;19921;-10
2023/03/22 14:03:49;;;;;;;;;;;17.40;82.40;;;;;;5056664;28;19944;-10
2023/03/22 14:06:19;;;;;;;;;;;17.40;82.50;;;;;;5066512;28;20425;-10
2023/03/22 14:08:46;;;;;;;;;;;17.40;82.40;;;;;;5067779;28;20305;-10
2023/03/22 14:11:11;;;;;;;;;;;17.40;82.20;;;;;;5049715;28;20486;-10
2023/03/22 14:13:39;;;;;;;;;;;17.40;82.10;;;;;;5067574;28;20353;-11
2023/03/22 14:16:10;;;;;;;;;;;17.50;82.00;;;;;;5049344;28;19916;-11
2023/03/22 14:18:38;;;;;;;;;;;17.50;81.80;;;;;;5068753;28;19916;-11
2023/03/22 14:21:10;;;;;;;;;;;17.50;81.60;;;;;;5050251;28;19912;-11
2023/03/22 14:23:39;;;;;;;;;;;17.50;81.50;;;;;;5058927;28;19915;-11
2023/03/22 14:26:17;;;;;;;;;;;17.50;81.40;;;;;;5077441;28;20000;-11
2023/03/22 14:28:42;;;;;;;;;;;17.50;81.30;;;;;;5072323;28;19908;-11
2023/03/22 14:31:25;;;;;;;;;;;17.50;81.20;;;;;;5066990;28;19940;-11
2023/03/22 14:33:52;;;;;;;;;;;17.50;81.10;;;;;;5068133;28;19908;-11
2023/03/22 14:36:19;;;;;;;;;;;17.50;81.00;;;;;;5069664;28;19962;-11
2023/03/22 14:38:46;;;;;;;;;;;17.50;81.00;;;;;;5068478;28;19962;-11